x

Cape Elizabeth- 45nm Nw Of Aberdeen, Wa (46041) Wave Buoy

3:50 - Fri 24th Mar 2017 All times are PDT. -7 hours from GMT.

  • Sig Wave height 12.5ft
  • Swell Direction
  • Peak Period 11s
  • Average Period 8s
  • Wind
    20mph, 27mph gusts
  • Sea Temp 50°f
  • Aire Temp 49°f
  • Sea Pressure 1009.4mb
  • Cape Elizabeth- 45nm Nw Of Aberdeen, Wa
  • Cape Elizabeth- 45nm Nw Of Aberdeen, Wa

More Historic Weather Station data

Upgrade to MSW Pro to gain access to the past 30 days of data for over 8000 Wavebouys and Weather Stations around the globe.

Join Pro

Comparision Forecast

View Surf forecast
   
vie 03/24 3:50 12.5ft 11s 8s 20 27 mph 1009.4mb 50f 49f
2:50 13ft 11s 8s 20 25 mph 1008.9mb 50f 49f
1:50 13ft 11s 8s 16 20 mph 1008.4mb 50f 49f
12:50 13ft 11s 8s 18 22 mph 1008mb 50f 49f
11:50 13.5ft 11s 8s 20 25 mph 1007.2mb 50f 50f
10:50 14ft 11s 8s 22 29 mph 1006.8mb 50f 50f
9:50 15ft 11s 9s 20 27 mph 1006.1mb 50f 50f
8:50 13ft 12s 9s 20 25 mph 1005.9mb 50f 49f
7:50 13.5ft 12s 9s 16 22 mph 1006mb 50f 49f
6:50 14ft 11s 9s 16 20 mph 1006.2mb 50f 49f
5:50 15.5ft 11s 9s 13 18 mph 1006.1mb 50f 49f
4:50 15ft 12s 9s 13 18 mph 1005.9mb 50f 49f
3:50 15.5ft 12s 8s 16 20 mph 1006.2mb 50f 49f
2:50 18ft 11s 9s 18 25 mph 1006.5mb 50f 49f
1:50 16.5ft 11s 8s 20 25 mph 1006.4mb 50f 50f
12:50 17ft 11s 8s 29 34 mph 1006.4mb 50f 47f
jue 03/23 11:50 18.5ft 11s 8s 31 40 mph 1006.1mb 50f 47f
10:50 14.5ft 10s 7s 31 38 mph 1006.1mb 50f 47f
9:50 13.5ft 8s 7s 31 38 mph 1006.9mb 50f 47f
8:50 12ft 8s 7s 34 40 mph 1007.6mb 50f 47f
7:50 11.5ft 8s 7s 31 43 mph 1008.1mb 50f 47f
6:50 11ft 8s 6s 31 36 mph 1008.9mb 50f 47f
5:50 10ft 8s 6s 36 43 mph 1009.8mb 50f 47f
4:50 8.5ft 7s 6s 31 38 mph 1011mb 50f 47f
3:50 9ft 8s 6s 27 36 mph 1011.4mb 50f 49f
2:50 7.5ft 7s 5s 29 36 mph 1011.9mb 50f 49f
1:50 7.5ft 6s 6s 29 34 mph 1012.8mb 50f 48f
12:50 7ft 6s 5s 27 34 mph 1013.4mb 50f 48f
11:50 7.5ft 8s 5s 27 36 mph 1014.1mb 50f 47f
10:50 7.5ft 7s 6s 27 34 mph 1014.5mb 50f 47f
9:50 6.5ft 7s 5s 27 31 mph 1014.8mb 50f 46f
8:50 7ft 15s 6s 25 29 mph 1015.1mb 50f 46f
7:50 7ft 8s 6s 22 27 mph 1015.3mb 50f 47f
6:50 7.5ft 8s 6s 18 25 mph 1015.7mb 50f 48f
5:50 7.5ft 9s 6s 16 20 mph 1016.1mb 50f 47f
4:50 8ft 8s 7s 18 25 mph 1016.4mb 50f 46f
3:50 8ft 9s 7s 18 20 mph 1016.5mb 50f 48f
2:50 8.5ft 8s 7s 18 20 mph 1016.6mb 49f 48f
1:50 8ft 9s 7s 16 20 mph 1016.7mb 49f 48f
12:50 8.5ft 8s 7s 16 20 mph 1016.7mb 49f 48f
mié 03/22 11:50 8ft 8s 7s 18 20 mph 1016.9mb 49f 48f
10:50 9ft 9s 7s 18 20 mph 1016.6mb 49f 48f
9:50 9ft 8s 7s 16 20 mph 1016.3mb 49f 47f
8:50 10ft 8s 7s 18 22 mph 1015.9mb 49f 48f
7:50 9ft 9s 7s 18 20 mph 1015.6mb 50f 48f
6:50 9.5ft 9s 7s 16 20 mph 1015.4mb 50f 48f
5:50 10ft 8s 7s 20 25 mph 1014.9mb 50f 48f
4:50 8.5ft 8s 6s 18 22 mph 1014.4mb 50f 47f
3:50 9ft 9s 6s 20 25 mph 1013.2mb 50f 48f
2:50 9ft 9s 6s 22 27 mph 1012.1mb 50f 47f
1:50 9ft 9s 7s 27 34 mph 1010.4mb 50f 47f
12:50 9ft 9s 7s 16 20 mph 1008.8mb 50f 48f
11:50 8.5ft 9s 6s 20 25 mph 1007.9mb 50f 49f
10:50 9ft 8s 6s 20 25 mph 1007.1mb 50f 49f
9:50 9ft 8s 6s 22 29 mph 1006.4mb 50f 49f
8:50 9ft 8s 6s 25 29 mph 1005.8mb 50f 49f
7:50 9ft 9s 6s 25 31 mph 1005.3mb 50f 49f
6:50 9ft 9s 6s 18 25 mph 1005mb 50f 50f
5:50 9ft 8s 6s 22 27 mph 1004.5mb 50f 49f
4:50 8.5ft 8s 6s 27 31 mph 1003.5mb 50f 50f
3:50 8ft 8s 6s 27 34 mph 1002.5mb 50f 50f
2:50 7ft 14s 7s 31 45 mph 1001.1mb 50f 50f
1:50 7ft 8s 6s 18 22 mph 1002.7mb 50f 50f
12:50 7ft 8s 6s 16 20 mph 1003.2mb 50f 50f
mar 03/21 11:50 7ft 8s 6s 20 27 mph 1003.7mb 50f 51f
10:50 8ft 8s 6s 22 27 mph 1003.7mb 50f 51f
9:50 7ft 9s 6s 25 31 mph 1003.4mb 50f 51f
8:50 7ft 9s 7s 18 22 mph 1003.4mb 50f 51f
7:50 7ft 15s 7s 18 22 mph 1003.8mb 50f 51f
6:50 7ft 8s 6s 16 18 mph 1004.1mb 50f 50f
5:50 7ft 15s 6s 18 20 mph 1004.1mb 50f 50f
4:50 7ft 7s 6s 16 18 mph 1004.4mb 50f 51f
3:50 7ft 9s 6s 18 20 mph 1004.4mb 50f 50f
2:50 7ft 16s 6s 20 25 mph 1004.1mb 50f 50f
1:50 7ft 16s 6s 25 29 mph 1003.7mb 50f 50f
12:50 6ft 8s 5s 25 29 mph 1003.5mb 50f 50f
11:50 6ft 16s 5s 25 29 mph 1003.2mb 50f 50f
10:50 5.5ft 16s 5s 25 29 mph 1002.5mb 50f 50f
9:50 5ft 16s 5s 25 29 mph 1002.3mb 50f 49f
8:50 5ft 16s 5s 25 27 mph 1002.5mb 50f 49f
7:50 5ft 5s 5s 25 29 mph 1002.8mb 50f 49f
6:50 5ft 16s 5s 27 31 mph 1003.1mb 50f 49f
5:50 5ft 17s 5s 22 31 mph 1003.3mb 49f 49f
4:50 5ft 17s 5s 27 34 mph 1003.6mb 49f 48f
3:50 5ft 17s 5s 27 34 mph 1003.6mb 49f 49f
2:50 4.5ft 17s 5s 27 31 mph 1004.4mb 49f 49f
1:50 4.5ft 17s 5s 25 29 mph 1004.6mb 49f 49f
12:50 4.5ft 17s 5s 27 31 mph 1005.6mb 49f 50f